createdAt,value
2022-11-21T00:01:54.619Z,97568.95
2022-11-21T00:04:27.113Z,97568.78
2022-11-21T00:06:59.762Z,97571.04
2022-11-21T00:09:34.016Z,97572.86
2022-11-21T00:12:06.522Z,97574.63
2022-11-21T00:14:40.745Z,97565.96
2022-11-21T00:17:13.712Z,97563.23
2022-11-21T00:19:45.767Z,97562.31
2022-11-21T00:22:17.904Z,97558.02
2022-11-21T00:24:54.048Z,97558.20
2022-11-21T00:27:26.483Z,97556.63
2022-11-21T00:30:00.303Z,97554.68
2022-11-21T00:32:32.829Z,97554.66
2022-11-21T00:35:05.351Z,97546.02
2022-11-21T00:37:38.223Z,97544.66
2022-11-21T00:40:13.014Z,97546.63
2022-11-21T00:42:45.751Z,97543.88
2022-11-21T00:45:23.904Z,97539.15
2022-11-21T00:47:56.547Z,97532.80
2022-11-21T00:50:28.693Z,97531.18
2022-11-21T00:53:01.275Z,97526.13
2022-11-21T00:55:33.425Z,97523.59
2022-11-21T00:58:05.685Z,97515.77
2022-11-21T01:00:37.822Z,97516.95
2022-11-21T01:03:13.248Z,97514.36
2022-11-21T01:05:45.398Z,97513.77
2022-11-21T01:08:17.727Z,97512.06
2022-11-21T01:10:53.003Z,97508.46
2022-11-21T01:13:25.104Z,97503.74
2022-11-21T01:15:57.634Z,97505.69
2022-11-21T01:18:29.779Z,97507.84
2022-11-21T01:21:08.147Z,97503.90
2022-11-21T01:23:40.660Z,97497.55
2022-11-21T01:26:15.221Z,97496.98
2022-11-21T01:28:47.838Z,97493.50
2022-11-21T01:31:21.678Z,97487.48
2022-11-21T01:33:54.296Z,97488.86
2022-11-21T01:36:28.759Z,97490.60
2022-11-21T01:39:03.367Z,97486.30
2022-11-21T01:41:37.528Z,97486.13
2022-11-21T01:44:24.502Z,97490.84
2022-11-21T01:46:56.949Z,97490.06
2022-11-21T01:49:32.007Z,97485.91
2022-11-21T01:52:08.517Z,97483.16
2022-11-21T01:54:44.294Z,97486.59
2022-11-21T01:57:20.595Z,97491.30
2022-11-21T01:59:58.049Z,97493.14
2022-11-21T02:02:34.201Z,97496.63
2022-11-21T02:05:10.489Z,97494.10
2022-11-21T02:07:45.720Z,97494.80
2022-11-21T02:10:19.304Z,97495.53
2022-11-21T02:12:54.845Z,97498.52
2022-11-21T02:15:30.354Z,97493.77
2022-11-21T02:18:03.572Z,97485.23
2022-11-21T02:20:36.514Z,97476.94
2022-11-21T02:23:14.282Z,97473.67
2022-11-21T02:25:46.844Z,97472.71
2022-11-21T02:28:21.351Z,97466.84
2022-11-21T02:30:53.460Z,97467.89
2022-11-21T02:33:28.249Z,97468.89
2022-11-21T02:36:01.947Z,97466.42
2022-11-21T02:38:39.411Z,97471.69
2022-11-21T02:41:18.602Z,97476.77
2022-11-21T02:43:54.211Z,97478.95
2022-11-21T02:46:27.076Z,97485.81
2022-11-21T02:48:59.825Z,97484.88
2022-11-21T02:51:33.842Z,97483.79
2022-11-21T02:54:09.130Z,97477.27
2022-11-21T02:56:41.367Z,97471.54
2022-11-21T02:59:13.469Z,97473.00
2022-11-21T03:01:45.828Z,97469.61
2022-11-21T03:04:20.720Z,97470.95
2022-11-21T03:06:52.772Z,97463.11
2022-11-21T03:09:24.850Z,97457.57
2022-11-21T03:11:57.262Z,97454.15
2022-11-21T03:14:29.626Z,97451.89
2022-11-21T03:17:01.982Z,97444.84
2022-11-21T03:19:34.281Z,97438.38
2022-11-21T03:22:06.436Z,97435.27
2022-11-21T03:24:38.533Z,97438.85
2022-11-21T03:27:10.656Z,97441.64
2022-11-21T03:29:42.759Z,97447.26
2022-11-21T03:32:14.900Z,97440.36
2022-11-21T03:34:47.125Z,97434.73
2022-11-21T03:37:19.244Z,97432.37
2022-11-21T03:39:51.389Z,97425.09
2022-11-21T03:42:23.604Z,97423.92
2022-11-21T03:44:55.802Z,97419.66
2022-11-21T03:47:27.817Z,97416.52
2022-11-21T03:49:59.931Z,97415.40
2022-11-21T03:52:32.190Z,97401.98
2022-11-21T03:55:04.529Z,97400.79
2022-11-21T03:57:36.656Z,97400.15
2022-11-21T04:00:12.904Z,97395.04
2022-11-21T04:02:44.949Z,97395.18
2022-11-21T04:05:17.295Z,97401.57
2022-11-21T04:07:49.582Z,97395.14
2022-11-21T04:10:22.111Z,97399.48
2022-11-21T04:12:54.676Z,97402.93
2022-11-21T04:15:27.462Z,97403.14
2022-11-21T04:17:59.566Z,97400.41
2022-11-21T04:20:31.639Z,97398.84
2022-11-21T04:23:09.217Z,97400.10
2022-11-21T04:25:41.724Z,97395.38
2022-11-21T04:28:16.289Z,97392.02
2022-11-21T04:30:48.507Z,97385.15
2022-11-21T04:33:21.078Z,97377.34
2022-11-21T04:35:54.394Z,97376.73
2022-11-21T04:38:26.918Z,97369.27
2022-11-21T04:40:59.111Z,97365.94
2022-11-21T04:43:31.179Z,97359.48
2022-11-21T04:46:03.440Z,97354.38
2022-11-21T04:48:35.534Z,97354.48
2022-11-21T04:51:07.742Z,97354.02
2022-11-21T04:53:43.077Z,97350.46
2022-11-21T04:56:16.714Z,97349.92
2022-11-21T04:58:49.222Z,97347.52
2022-11-21T05:01:21.336Z,97339.73
2022-11-21T05:03:55.012Z,97327.58
2022-11-21T05:06:27.188Z,97327.37
2022-11-21T05:08:59.264Z,97336.52
2022-11-21T05:11:49.236Z,97334.84
2022-11-21T05:14:23.587Z,97330.30
2022-11-21T05:16:55.749Z,97328.55
2022-11-21T05:19:27.812Z,97323.39
2022-11-21T05:22:00.037Z,97328.52
2022-11-21T05:24:33.158Z,97330.92
2022-11-21T05:27:05.499Z,97334.02
2022-11-21T05:29:37.910Z,97324.59
2022-11-21T05:32:10.089Z,97321.90
2022-11-21T05:34:42.471Z,97315.14
2022-11-21T05:37:14.688Z,97309.77
2022-11-21T05:39:46.759Z,97309.55
2022-11-21T05:42:39.126Z,97312.54
2022-11-21T05:45:12.529Z,97303.49
2022-11-21T05:47:47.095Z,97302.34
2022-11-21T05:50:19.792Z,97304.14
2022-11-21T05:52:51.911Z,97302.77
2022-11-21T05:55:24.791Z,97304.83
2022-11-21T05:57:58.788Z,97311.58
2022-11-21T06:00:31.371Z,97310.60
2022-11-21T06:03:21.691Z,97310.73
2022-11-21T06:05:53.920Z,97316.73
2022-11-21T06:08:26.079Z,97310.84
2022-11-21T06:10:58.692Z,97306.73
2022-11-21T06:13:31.131Z,97308.35
2022-11-21T06:16:06.122Z,97307.59
2022-11-21T06:18:39.584Z,97308.57
2022-11-21T06:21:15.172Z,97308.48
2022-11-21T06:23:48.039Z,97306.23
2022-11-21T06:26:21.856Z,97314.29
2022-11-21T06:28:54.374Z,97317.31
2022-11-21T06:31:28.405Z,97321.06
2022-11-21T06:34:01.565Z,97326.45
2022-11-21T06:36:33.906Z,97326.61
2022-11-21T06:39:06.694Z,97323.02
2022-11-21T06:41:39.079Z,97318.96
2022-11-21T06:44:11.359Z,97312.01
2022-11-21T06:46:52.905Z,97306.80
2022-11-21T06:49:32.147Z,97297.02
2022-11-21T06:52:06.103Z,97294.48
2022-11-21T06:54:38.779Z,97290.71
2022-11-21T06:57:11.025Z,97286.29
2022-11-21T06:59:43.732Z,97291.55
2022-11-21T07:02:18.163Z,97291.08
2022-11-21T07:04:50.573Z,97287.31
2022-11-21T07:07:23.346Z,97276.55
2022-11-21T07:09:56.983Z,97279.19
2022-11-21T07:12:47.139Z,97281.33
2022-11-21T07:15:19.709Z,97276.63
2022-11-21T07:17:51.899Z,97277.09
2022-11-21T07:20:24.332Z,97272.71
2022-11-21T07:22:58.003Z,97271.68
2022-11-21T07:25:36.638Z,97267.48
2022-11-21T07:28:10.293Z,97264.63
2022-11-21T07:30:42.409Z,97259.60
2022-11-21T07:33:14.964Z,97254.77
2022-11-21T07:35:47.248Z,97251.52
2022-11-21T07:38:20.314Z,97245.70
2022-11-21T07:40:52.871Z,97245.46
2022-11-21T07:43:25.274Z,97242.08
2022-11-21T07:45:57.845Z,97236.98
2022-11-21T07:48:30.805Z,97236.03
2022-11-21T07:51:06.494Z,97231.98
2022-11-21T07:53:38.800Z,97231.96
2022-11-21T07:56:11.126Z,97224.95
2022-11-21T07:58:43.254Z,97222.73
2022-11-21T08:01:15.435Z,97221.55
2022-11-21T08:03:47.762Z,97219.56
2022-11-21T08:06:20.066Z,97216.65
2022-11-21T08:08:56.066Z,97214.73
2022-11-21T08:11:29.047Z,97220.11
2022-11-21T08:14:04.996Z,97220.96
2022-11-21T08:16:37.667Z,97221.48
2022-11-21T08:19:10.096Z,97223.09
2022-11-21T08:21:42.333Z,97221.12
2022-11-21T08:24:14.813Z,97221.53
2022-11-21T08:26:47.633Z,97219.82
2022-11-21T08:29:20.464Z,97215.27
2022-11-21T08:31:52.815Z,97220.08
2022-11-21T08:34:25.547Z,97222.95
2022-11-21T08:53:02.641Z,97211.23
2022-11-21T08:55:34.995Z,97209.25
2022-11-21T08:58:07.281Z,97215.07
2022-11-21T09:01:10.474Z,97212.08
2022-11-21T09:03:49.086Z,97214.53
2022-11-21T09:06:21.250Z,97209.67
2022-11-21T09:09:10.634Z,97207.45
2022-11-21T09:11:49.099Z,97207.28
2022-11-21T09:19:05.196Z,97197.27
2022-11-21T09:22:22.182Z,97191.17
2022-11-21T09:25:49.270Z,97186.83
2022-11-21T09:28:28.235Z,97180.95
2022-11-21T09:34:50.417Z,97178.64
2022-11-21T09:42:52.962Z,97149.21
2022-11-21T09:49:34.906Z,97139.11
2022-11-21T09:57:34.621Z,97133.33
2022-11-21T10:04:32.497Z,97125.53
2022-11-21T10:12:14.106Z,97124.38
2022-11-21T10:24:20.849Z,97119.98
2022-11-21T10:31:16.779Z,97116.20
2022-11-21T10:33:51.659Z,97110.15
2022-11-21T10:36:31.800Z,97107.61
2022-11-21T10:39:20.041Z,97099.01
2022-11-21T10:42:03.699Z,97084.27
2022-11-21T10:44:53.600Z,97075.52
2022-11-21T10:56:55.205Z,97066.85
2022-11-21T11:04:31.884Z,97070.19
2022-11-21T11:12:51.626Z,97078.98
2022-11-21T11:15:26.413Z,97080.55
2022-11-21T11:18:21.118Z,97080.87
2022-11-21T11:20:56.426Z,97080.82
2022-11-21T11:29:24.086Z,97089.98
2022-11-21T11:31:59.604Z,97090.11
2022-11-21T11:39:45.506Z,97098.75
2022-11-21T12:00:48.239Z,97112.60
2022-11-21T12:21:31.713Z,97122.98
2022-11-21T12:24:06.132Z,97119.29
2022-11-21T12:27:32.855Z,97118.48
2022-11-21T12:30:29.711Z,97119.02
2022-11-21T13:22:59.991Z,97111.48
2022-11-21T13:30:17.080Z,97118.83
2022-11-21T13:33:21.063Z,97118.13
2022-11-21T13:36:13.372Z,97114.33
2022-11-21T13:39:53.761Z,97113.47
2022-11-21T13:51:53.239Z,97119.33
2022-11-21T13:55:31.250Z,97117.70
2022-11-21T14:03:19.181Z,97128.40
2022-11-21T14:10:59.246Z,97136.25
2022-11-21T14:22:45.186Z,97140.02
2022-11-21T14:35:03.950Z,97141.94
2022-11-21T14:37:36.650Z,97142.60
2022-11-21T14:40:21.329Z,97142.25
2022-11-21T14:47:59.266Z,97152.69
2022-11-21T15:58:35.422Z,97165.93
2022-11-21T16:01:08.037Z,97163.95
2022-11-21T16:03:49.613Z,97164.06
2022-11-21T16:07:10.560Z,97160.50
2022-11-21T16:09:50.134Z,97161.98
2022-11-21T16:12:22.372Z,97162.83
2022-11-21T16:15:01.134Z,97162.77
2022-11-21T16:17:34.684Z,97158.89
2022-11-21T16:20:13.856Z,97158.96
2022-11-21T16:22:48.011Z,97155.26
2022-11-21T16:30:32.502Z,97168.38
2022-11-21T16:33:05.789Z,97170.89
2022-11-21T16:35:44.829Z,97171.77
2022-11-21T16:38:17.060Z,97173.65
2022-11-21T16:50:15.193Z,97176.05
2022-11-21T16:52:47.474Z,97178.12
2022-11-21T16:55:26.101Z,97173.33
2022-11-21T16:57:59.452Z,97171.33
2022-11-21T17:00:37.916Z,97170.66
2022-11-21T17:03:10.204Z,97173.19
2022-11-21T17:10:49.508Z,97178.21
2022-11-21T17:13:22.093Z,97173.84
2022-11-21T17:21:07.324Z,97168.77
2022-11-21T17:23:41.771Z,97165.66
2022-11-21T17:27:04.871Z,97167.48
2022-11-21T17:34:32.771Z,97172.90
2022-11-21T17:38:01.919Z,97171.96
2022-11-21T17:50:05.561Z,97174.63
2022-11-21T17:53:44.852Z,97181.39
2022-11-21T18:05:32.282Z,97192.28
2022-11-21T18:08:11.020Z,97192.73
2022-11-21T18:10:44.246Z,97194.80
2022-11-21T18:18:12.291Z,97199.58
2022-11-21T18:20:44.638Z,97204.13
2022-11-21T18:23:23.904Z,97203.33
2022-11-21T18:25:56.251Z,97198.20
2022-11-21T18:29:34.154Z,97198.27
2022-11-21T18:56:35.431Z,97213.21
2022-11-21T18:59:08.875Z,97217.40
2022-11-21T19:01:48.281Z,97219.42
2022-11-21T19:13:35.424Z,97227.46
2022-11-21T19:16:16.992Z,97229.27
2022-11-21T19:24:28.168Z,97236.02
2022-11-21T19:27:07.065Z,97234.27
2022-11-21T19:29:40.722Z,97240.62
2022-11-21T19:32:20.169Z,97241.38
2022-11-21T19:40:13.108Z,97236.30
2022-11-21T19:43:42.221Z,97242.14
2022-11-21T19:55:46.289Z,97251.27
2022-11-21T20:02:30.793Z,97252.52
2022-11-21T20:14:25.015Z,97266.69
2022-11-21T20:30:18.465Z,97276.05
2022-11-21T20:37:43.214Z,97279.60
2022-11-21T20:40:22.074Z,97283.34
2022-11-21T20:42:56.236Z,97284.48
2022-11-21T20:49:01.080Z,97282.45
2022-11-21T20:55:14.412Z,97289.73
2022-11-21T20:57:46.869Z,97288.55
2022-11-21T21:09:42.120Z,97298.89
2022-11-21T21:12:14.318Z,97298.77
2022-11-21T21:14:53.025Z,97298.95
2022-11-21T21:17:25.349Z,97294.84
2022-11-21T21:29:40.788Z,97287.54
2022-11-21T21:32:12.971Z,97289.94
2022-11-21T21:35:22.082Z,97293.15
2022-11-21T21:37:54.363Z,97294.39
2022-11-21T21:40:28.821Z,97294.45
2022-11-21T21:43:59.116Z,97291.79
2022-11-21T21:46:31.345Z,97290.15
2022-11-21T21:53:13.106Z,97282.11
2022-11-21T21:55:45.236Z,97281.50
2022-11-21T21:58:24.173Z,97280.27
2022-11-21T22:01:15.345Z,97281.50
2022-11-21T22:07:54.287Z,97286.56
2022-11-21T22:10:26.634Z,97289.02
2022-11-21T22:14:11.587Z,97287.32
2022-11-21T22:16:44.708Z,97282.77
2022-11-21T22:23:46.681Z,97266.99
2022-11-21T22:27:20.205Z,97266.70
2022-11-21T22:29:59.139Z,97266.98
2022-11-21T22:32:31.980Z,97265.15
2022-11-21T22:40:48.009Z,97266.05
2022-11-21T22:43:42.493Z,97262.84
2022-11-21T22:46:15.226Z,97264.00
2022-11-21T22:53:41.587Z,97258.02
2022-11-21T22:56:16.283Z,97253.27
2022-11-21T22:58:48.983Z,97253.30
2022-11-21T23:01:23.147Z,97249.89
2022-11-21T23:04:20.199Z,97247.11
2022-11-21T23:06:52.469Z,97250.44
2022-11-21T23:09:31.785Z,97243.79
2022-11-21T23:12:04.182Z,97245.95
2022-11-21T23:14:45.460Z,97243.59
2022-11-21T23:17:17.773Z,97238.42
2022-11-21T23:19:56.589Z,97234.77
2022-11-21T23:22:28.932Z,97234.69
2022-11-21T23:25:08.895Z,97228.88
2022-11-21T23:27:41.268Z,97236.02
2022-11-21T23:34:44.715Z,97249.35
2022-11-21T23:37:18.322Z,97248.88
2022-11-21T23:39:50.737Z,97240.40
2022-11-21T23:42:42.794Z,97239.07
2022-11-21T23:54:33.358Z,97234.73
2022-11-21T23:57:12.707Z,97239.39
2022-11-21T23:59:45.382Z,97236.25
